sensor_id;sensor_type;location;lat;lon;timestamp;temperature;humidity
69776;DHT22;57049;51.450;-2.516;2022-07-04T00:00:17;11.86;92.19
69776;DHT22;57049;51.450;-2.516;2022-07-04T00:02:44;11.77;92.34
69776;DHT22;57049;51.450;-2.516;2022-07-04T00:05:11;11.71;92.54
69776;DHT22;57049;51.450;-2.516;2022-07-04T00:07:38;11.67;92.72
69776;DHT22;57049;51.450;-2.516;2022-07-04T00:10:05;11.63;92.89
69776;DHT22;57049;51.450;-2.516;2022-07-04T00:12:30;11.64;92.63
69776;DHT22;57049;51.450;-2.516;2022-07-04T00:14:56;11.63;92.86
69776;DHT22;57049;51.450;-2.516;2022-07-04T00:17:21;11.62;93.18
69776;DHT22;57049;51.450;-2.516;2022-07-04T00:19:47;11.63;93.11
69776;DHT22;57049;51.450;-2.516;2022-07-04T00:22:12;11.54;92.66
69776;DHT22;57049;51.450;-2.516;2022-07-04T00:24:38;11.50;93.24
69776;DHT22;57049;51.450;-2.516;2022-07-04T00:27:03;11.46;93.34
69776;DHT22;57049;51.450;-2.516;2022-07-04T00:29:29;11.37;93.33
69776;DHT22;57049;51.450;-2.516;2022-07-04T00:31:54;11.35;93.17
69776;DHT22;57049;51.450;-2.516;2022-07-04T00:34:20;11.30;93.51
69776;DHT22;57049;51.450;-2.516;2022-07-04T00:36:46;11.32;94.22
69776;DHT22;57049;51.450;-2.516;2022-07-04T00:39:11;11.33;94.25
69776;DHT22;57049;51.450;-2.516;2022-07-04T00:41:37;11.35;94.08
69776;DHT22;57049;51.450;-2.516;2022-07-04T00:44:05;11.29;93.89
69776;DHT22;57049;51.450;-2.516;2022-07-04T00:46:31;11.19;94.23
69776;DHT22;57049;51.450;-2.516;2022-07-04T00:48:57;11.09;94.21
69776;DHT22;57049;51.450;-2.516;2022-07-04T00:51:23;11.19;94.22
69776;DHT22;57049;51.450;-2.516;2022-07-04T00:53:50;11.18;94.03
69776;DHT22;57049;51.450;-2.516;2022-07-04T00:56:16;11.05;94.68
69776;DHT22;57049;51.450;-2.516;2022-07-04T00:58:42;10.99;94.69
69776;DHT22;57049;51.450;-2.516;2022-07-04T01:01:07;10.92;94.85
69776;DHT22;57049;51.450;-2.516;2022-07-04T01:03:33;10.85;95.28
69776;DHT22;57049;51.450;-2.516;2022-07-04T01:05:59;10.84;94.65
69776;DHT22;57049;51.450;-2.516;2022-07-04T01:08:25;10.76;95.30
69776;DHT22;57049;51.450;-2.516;2022-07-04T01:10:51;10.82;95.04
69776;DHT22;57049;51.450;-2.516;2022-07-04T01:13:21;10.85;95.16
69776;DHT22;57049;51.450;-2.516;2022-07-04T01:15:47;10.82;95.13
69776;DHT22;57049;51.450;-2.516;2022-07-04T01:18:13;10.79;95.31
69776;DHT22;57049;51.450;-2.516;2022-07-04T01:20:38;10.76;95.15
69776;DHT22;57049;51.450;-2.516;2022-07-04T01:23:04;10.78;95.48
69776;DHT22;57049;51.450;-2.516;2022-07-04T01:25:30;10.72;95.28
69776;DHT22;57049;51.450;-2.516;2022-07-04T01:27:56;10.79;95.42
69776;DHT22;57049;51.450;-2.516;2022-07-04T01:30:22;10.76;95.47
69776;DHT22;57049;51.450;-2.516;2022-07-04T01:32:47;10.81;95.03
69776;DHT22;57049;51.450;-2.516;2022-07-04T01:35:13;10.82;95.23
69776;DHT22;57049;51.450;-2.516;2022-07-04T01:37:38;10.75;95.19
69776;DHT22;57049;51.450;-2.516;2022-07-04T01:40:04;10.85;94.90
69776;DHT22;57049;51.450;-2.516;2022-07-04T01:42:30;10.86;94.63
69776;DHT22;57049;51.450;-2.516;2022-07-04T01:44:55;10.92;94.77
69776;DHT22;57049;51.450;-2.516;2022-07-04T01:47:21;10.81;94.69
69776;DHT22;57049;51.450;-2.516;2022-07-04T01:49:46;10.81;94.84
69776;DHT22;57049;51.450;-2.516;2022-07-04T01:52:12;10.89;94.59
69776;DHT22;57049;51.450;-2.516;2022-07-04T01:54:38;10.84;94.54
69776;DHT22;57049;51.450;-2.516;2022-07-04T01:57:04;10.84;94.68
69776;DHT22;57049;51.450;-2.516;2022-07-04T01:59:29;10.81;95.15
69776;DHT22;57049;51.450;-2.516;2022-07-04T02:02:13;10.86;94.93
69776;DHT22;57049;51.450;-2.516;2022-07-04T02:04:39;10.88;94.94
69776;DHT22;57049;51.450;-2.516;2022-07-04T02:07:04;10.95;94.62
69776;DHT22;57049;51.450;-2.516;2022-07-04T02:09:29;10.99;94.54
69776;DHT22;57049;51.450;-2.516;2022-07-04T02:11:56;10.96;94.66
69776;DHT22;57049;51.450;-2.516;2022-07-04T02:14:39;11.01;94.83
69776;DHT22;57049;51.450;-2.516;2022-07-04T02:17:07;11.03;94.63
69776;DHT22;57049;51.450;-2.516;2022-07-04T02:19:32;11.03;94.76
69776;DHT22;57049;51.450;-2.516;2022-07-04T02:21:58;11.06;94.84
69776;DHT22;57049;51.450;-2.516;2022-07-04T02:24:23;11.12;94.70
69776;DHT22;57049;51.450;-2.516;2022-07-04T02:26:48;11.06;94.32
69776;DHT22;57049;51.450;-2.516;2022-07-04T02:29:14;11.09;94.48
69776;DHT22;57049;51.450;-2.516;2022-07-04T02:31:40;11.12;94.45
69776;DHT22;57049;51.450;-2.516;2022-07-04T02:34:05;11.13;94.62
69776;DHT22;57049;51.450;-2.516;2022-07-04T02:36:31;11.15;94.60
69776;DHT22;57049;51.450;-2.516;2022-07-04T02:38:56;11.15;94.92
69776;DHT22;57049;51.450;-2.516;2022-07-04T02:41:22;11.13;94.77
69776;DHT22;57049;51.450;-2.516;2022-07-04T02:43:47;11.18;94.53
69776;DHT22;57049;51.450;-2.516;2022-07-04T02:46:13;11.20;94.56
69776;DHT22;57049;51.450;-2.516;2022-07-04T02:48:38;11.25;94.20
69776;DHT22;57049;51.450;-2.516;2022-07-04T02:51:03;11.25;94.27
69776;DHT22;57049;51.450;-2.516;2022-07-04T02:53:29;11.22;93.67
69776;DHT22;57049;51.450;-2.516;2022-07-04T02:55:54;11.20;94.55
69776;DHT22;57049;51.450;-2.516;2022-07-04T02:58:20;11.16;94.76
69776;DHT22;57049;51.450;-2.516;2022-07-04T03:00:45;11.18;94.57
69776;DHT22;57049;51.450;-2.516;2022-07-04T03:03:10;11.15;94.39
69776;DHT22;57049;51.450;-2.516;2022-07-04T03:05:36;11.13;93.74
69776;DHT22;57049;51.450;-2.516;2022-07-04T03:08:01;11.15;94.53
69776;DHT22;57049;51.450;-2.516;2022-07-04T03:10:27;11.18;94.11
69776;DHT22;57049;51.450;-2.516;2022-07-04T03:12:52;11.22;93.96
69776;DHT22;57049;51.450;-2.516;2022-07-04T03:15:18;11.22;93.62
69776;DHT22;57049;51.450;-2.516;2022-07-04T03:17:43;11.33;93.54
69776;DHT22;57049;51.450;-2.516;2022-07-04T03:20:09;11.37;93.07
69776;DHT22;57049;51.450;-2.516;2022-07-04T03:22:34;11.47;92.34
69776;DHT22;57049;51.450;-2.516;2022-07-04T03:25:00;11.44;92.60
69776;DHT22;57049;51.450;-2.516;2022-07-04T03:27:25;11.40;92.84
69776;DHT22;57049;51.450;-2.516;2022-07-04T03:29:51;11.33;92.98
69776;DHT22;57049;51.450;-2.516;2022-07-04T03:32:16;11.27;93.31
69776;DHT22;57049;51.450;-2.516;2022-07-04T03:34:42;11.27;93.17
69776;DHT22;57049;51.450;-2.516;2022-07-04T03:37:07;11.26;93.48
69776;DHT22;57049;51.450;-2.516;2022-07-04T03:39:32;11.29;93.64
69776;DHT22;57049;51.450;-2.516;2022-07-04T03:41:58;11.30;93.50
69776;DHT22;57049;51.450;-2.516;2022-07-04T03:44:23;11.27;93.59
69776;DHT22;57049;51.450;-2.516;2022-07-04T03:46:49;11.26;93.75
69776;DHT22;57049;51.450;-2.516;2022-07-04T03:49:14;11.26;93.76
69776;DHT22;57049;51.450;-2.516;2022-07-04T03:51:40;11.27;94.30
69776;DHT22;57049;51.450;-2.516;2022-07-04T03:54:05;11.30;94.15
69776;DHT22;57049;51.450;-2.516;2022-07-04T03:56:30;11.37;94.23
69776;DHT22;57049;51.450;-2.516;2022-07-04T03:58:56;11.37;94.43
69776;DHT22;57049;51.450;-2.516;2022-07-04T04:01:22;11.37;94.50
69776;DHT22;57049;51.450;-2.516;2022-07-04T04:03:47;11.35;94.57
69776;DHT22;57049;51.450;-2.516;2022-07-04T04:06:31;11.30;94.76
69776;DHT22;57049;51.450;-2.516;2022-07-04T04:08:57;11.29;94.88
69776;DHT22;57049;51.450;-2.516;2022-07-04T04:11:22;11.39;95.28
69776;DHT22;57049;51.450;-2.516;2022-07-04T04:13:48;11.52;95.15
69776;DHT22;57049;51.450;-2.516;2022-07-04T04:16:13;11.57;95.14
69776;DHT22;57049;51.450;-2.516;2022-07-04T04:18:38;11.63;95.26
69776;DHT22;57049;51.450;-2.516;2022-07-04T04:21:04;11.80;94.55
69776;DHT22;57049;51.450;-2.516;2022-07-04T04:23:30;11.91;94.39
69776;DHT22;57049;51.450;-2.516;2022-07-04T04:25:55;11.99;94.25
69776;DHT22;57049;51.450;-2.516;2022-07-04T04:28:22;12.01;93.83
69776;DHT22;57049;51.450;-2.516;2022-07-04T04:30:47;11.97;94.00
69776;DHT22;57049;51.450;-2.516;2022-07-04T04:33:13;11.99;94.09
69776;DHT22;57049;51.450;-2.516;2022-07-04T04:35:38;12.04;94.26
69776;DHT22;57049;51.450;-2.516;2022-07-04T04:38:04;12.07;94.43
69776;DHT22;57049;51.450;-2.516;2022-07-04T04:40:29;12.22;94.26
69776;DHT22;57049;51.450;-2.516;2022-07-04T04:42:55;12.37;93.88
69776;DHT22;57049;51.450;-2.516;2022-07-04T04:45:21;12.52;93.68
69776;DHT22;57049;51.450;-2.516;2022-07-04T04:47:47;12.68;93.47
69776;DHT22;57049;51.450;-2.516;2022-07-04T04:50:12;12.78;93.11
69776;DHT22;57049;51.450;-2.516;2022-07-04T04:52:40;12.88;92.95
69776;DHT22;57049;51.450;-2.516;2022-07-04T04:55:06;12.92;92.29
69776;DHT22;57049;51.450;-2.516;2022-07-04T04:57:32;12.99;92.40
69776;DHT22;57049;51.450;-2.516;2022-07-04T04:59:58;13.00;92.20
69776;DHT22;57049;51.450;-2.516;2022-07-04T05:02:23;13.09;91.59
69776;DHT22;57049;51.450;-2.516;2022-07-04T05:04:48;13.17;91.51
69776;DHT22;57049;51.450;-2.516;2022-07-04T05:07:14;13.28;91.25
69776;DHT22;57049;51.450;-2.516;2022-07-04T05:09:40;13.31;91.01
69776;DHT22;57049;51.450;-2.516;2022-07-04T05:12:05;13.43;90.58
69776;DHT22;57049;51.450;-2.516;2022-07-04T05:14:31;13.58;90.99
69776;DHT22;57049;51.450;-2.516;2022-07-04T05:16:56;13.62;90.41
69776;DHT22;57049;51.450;-2.516;2022-07-04T05:19:22;13.70;90.36
69776;DHT22;57049;51.450;-2.516;2022-07-04T05:21:47;13.74;90.37
69776;DHT22;57049;51.450;-2.516;2022-07-04T05:24:12;13.77;89.82
69776;DHT22;57049;51.450;-2.516;2022-07-04T05:26:38;13.85;89.59
69776;DHT22;57049;51.450;-2.516;2022-07-04T05:29:04;13.99;89.46
69776;DHT22;57049;51.450;-2.516;2022-07-04T05:31:29;14.25;88.73
69776;DHT22;57049;51.450;-2.516;2022-07-04T05:33:55;14.44;86.13
69776;DHT22;57049;51.450;-2.516;2022-07-04T05:36:22;14.42;86.95
69776;DHT22;57049;51.450;-2.516;2022-07-04T05:38:47;14.42;87.27
69776;DHT22;57049;51.450;-2.516;2022-07-04T05:41:13;14.37;87.94
69776;DHT22;57049;51.450;-2.516;2022-07-04T05:43:38;14.47;85.72
69776;DHT22;57049;51.450;-2.516;2022-07-04T05:46:04;14.69;86.11
69776;DHT22;57049;51.450;-2.516;2022-07-04T05:48:29;14.91;84.28
69776;DHT22;57049;51.450;-2.516;2022-07-04T05:50:55;14.64;85.98
69776;DHT22;57049;51.450;-2.516;2022-07-04T05:53:20;16.74;78.93
69776;DHT22;57049;51.450;-2.516;2022-07-04T05:55:46;18.41;72.22
69776;DHT22;57049;51.450;-2.516;2022-07-04T05:58:11;19.85;66.25
69776;DHT22;57049;51.450;-2.516;2022-07-04T06:00:37;20.39;63.20
69776;DHT22;57049;51.450;-2.516;2022-07-04T06:03:05;20.87;62.73
69776;DHT22;57049;51.450;-2.516;2022-07-04T06:05:31;21.75;59.95
69776;DHT22;57049;51.450;-2.516;2022-07-04T06:07:56;21.86;59.15
69776;DHT22;57049;51.450;-2.516;2022-07-04T06:10:22;21.83;59.35
69776;DHT22;57049;51.450;-2.516;2022-07-04T06:12:48;22.28;58.80
69776;DHT22;57049;51.450;-2.516;2022-07-04T06:15:13;22.22;57.37
69776;DHT22;57049;51.450;-2.516;2022-07-04T06:17:41;22.40;56.48
69776;DHT22;57049;51.450;-2.516;2022-07-04T06:20:07;22.56;56.44
69776;DHT22;57049;51.450;-2.516;2022-07-04T06:22:46;22.77;55.91
69776;DHT22;57049;51.450;-2.516;2022-07-04T06:25:17;22.26;56.77
69776;DHT22;57049;51.450;-2.516;2022-07-04T06:27:43;22.77;54.90
69776;DHT22;57049;51.450;-2.516;2022-07-04T06:30:10;22.23;56.96
69776;DHT22;57049;51.450;-2.516;2022-07-04T06:32:47;23.00;55.06
69776;DHT22;57049;51.450;-2.516;2022-07-04T06:35:13;22.08;57.84
69776;DHT22;57049;51.450;-2.516;2022-07-04T06:37:58;22.78;56.34
69776;DHT22;57049;51.450;-2.516;2022-07-04T06:40:24;21.18;59.15
69776;DHT22;57049;51.450;-2.516;2022-07-04T06:42:50;20.16;62.46
69776;DHT22;57049;51.450;-2.516;2022-07-04T06:45:16;19.23;64.30
69776;DHT22;57049;51.450;-2.516;2022-07-04T06:47:41;18.71;66.55
69776;DHT22;57049;51.450;-2.516;2022-07-04T06:50:08;20.30;62.91
69776;DHT22;57049;51.450;-2.516;2022-07-04T06:52:33;21.17;58.62
69776;DHT22;57049;51.450;-2.516;2022-07-04T06:54:59;19.43;63.20
69776;DHT22;57049;51.450;-2.516;2022-07-04T06:57:25;18.32;67.04
69776;DHT22;57049;51.450;-2.516;2022-07-04T06:59:50;18.00;67.79
69776;DHT22;57049;51.450;-2.516;2022-07-04T07:02:16;17.93;68.98
69776;DHT22;57049;51.450;-2.516;2022-07-04T07:04:41;17.89;68.60
69776;DHT22;57049;51.450;-2.516;2022-07-04T07:07:08;17.70;70.11
69776;DHT22;57049;51.450;-2.516;2022-07-04T07:09:34;17.66;67.52
69776;DHT22;57049;51.450;-2.516;2022-07-04T07:11:59;17.62;67.94
69776;DHT22;57049;51.450;-2.516;2022-07-04T07:14:24;17.54;69.04
69776;DHT22;57049;51.450;-2.516;2022-07-04T07:16:50;17.39;70.45
69776;DHT22;57049;51.450;-2.516;2022-07-04T07:19:15;18.96;67.07
69776;DHT22;57049;51.450;-2.516;2022-07-04T07:21:41;19.06;65.93
69776;DHT22;57049;51.450;-2.516;2022-07-04T07:24:06;20.29;60.26
69776;DHT22;57049;51.450;-2.516;2022-07-04T07:26:32;20.33;60.88
69776;DHT22;57049;51.450;-2.516;2022-07-04T07:28:57;20.42;61.27
69776;DHT22;57049;51.450;-2.516;2022-07-04T07:31:23;21.66;56.22
69776;DHT22;57049;51.450;-2.516;2022-07-04T07:33:48;21.74;56.63
69776;DHT22;57049;51.450;-2.516;2022-07-04T07:36:13;21.01;59.35
69776;DHT22;57049;51.450;-2.516;2022-07-04T07:38:39;20.70;56.41
69776;DHT22;57049;51.450;-2.516;2022-07-04T07:41:09;20.28;59.62
69776;DHT22;57049;51.450;-2.516;2022-07-04T07:43:35;19.73;59.75
69776;DHT22;57049;51.450;-2.516;2022-07-04T07:46:02;18.93;62.40
69776;DHT22;57049;51.450;-2.516;2022-07-04T07:48:28;18.05;62.26
69776;DHT22;57049;51.450;-2.516;2022-07-04T07:50:54;18.13;64.23
69776;DHT22;57049;51.450;-2.516;2022-07-04T07:53:19;18.20;62.22
69776;DHT22;57049;51.450;-2.516;2022-07-04T07:55:45;17.98;63.04
69776;DHT22;57049;51.450;-2.516;2022-07-04T07:58:10;17.60;63.76
69776;DHT22;57049;51.450;-2.516;2022-07-04T08:00:35;17.59;62.55
69776;DHT22;57049;51.450;-2.516;2022-07-04T08:03:01;17.43;66.11
69776;DHT22;57049;51.450;-2.516;2022-07-04T08:05:45;17.35;66.64
69776;DHT22;57049;51.450;-2.516;2022-07-04T08:08:11;17.20;67.11
69776;DHT22;57049;51.450;-2.516;2022-07-04T08:10:37;17.23;66.78
69776;DHT22;57049;51.450;-2.516;2022-07-04T08:13:04;17.09;67.97
69776;DHT22;57049;51.450;-2.516;2022-07-04T08:15:29;17.07;68.60
69776;DHT22;57049;51.450;-2.516;2022-07-04T08:17:55;16.98;70.29
69776;DHT22;57049;51.450;-2.516;2022-07-04T08:20:21;16.99;70.62
69776;DHT22;57049;51.450;-2.516;2022-07-04T08:22:46;17.02;69.43
69776;DHT22;57049;51.450;-2.516;2022-07-04T08:25:12;16.96;69.21
69776;DHT22;57049;51.450;-2.516;2022-07-04T08:27:39;16.79;70.41
69776;DHT22;57049;51.450;-2.516;2022-07-04T08:30:05;16.65;70.96
69776;DHT22;57049;51.450;-2.516;2022-07-04T08:32:31;16.72;71.05
69776;DHT22;57049;51.450;-2.516;2022-07-04T08:34:56;16.68;70.53
69776;DHT22;57049;51.450;-2.516;2022-07-04T08:37:22;16.81;70.77
69776;DHT22;57049;51.450;-2.516;2022-07-04T08:39:48;16.64;71.85
69776;DHT22;57049;51.450;-2.516;2022-07-04T08:42:17;16.40;71.99
69776;DHT22;57049;51.450;-2.516;2022-07-04T08:44:50;16.38;72.36
69776;DHT22;57049;51.450;-2.516;2022-07-04T08:47:21;16.36;73.70
69776;DHT22;57049;51.450;-2.516;2022-07-04T08:52:37;16.30;73.10
69776;DHT22;57049;51.450;-2.516;2022-07-04T08:55:05;16.23;73.89
69776;DHT22;57049;51.450;-2.516;2022-07-04T08:57:50;16.20;74.47
69776;DHT22;57049;51.450;-2.516;2022-07-04T09:00:35;16.03;76.23
69776;DHT22;57049;51.450;-2.516;2022-07-04T09:03:02;16.30;75.93
69776;DHT22;57049;51.450;-2.516;2022-07-04T09:05:29;16.41;75.54
69776;DHT22;57049;51.450;-2.516;2022-07-04T09:07:55;16.54;75.59
69776;DHT22;57049;51.450;-2.516;2022-07-04T09:10:21;16.81;74.24
69776;DHT22;57049;51.450;-2.516;2022-07-04T09:12:48;17.18;72.94
69776;DHT22;57049;51.450;-2.516;2022-07-04T09:15:15;17.62;70.84
69776;DHT22;57049;51.450;-2.516;2022-07-04T09:17:40;18.41;71.82
69776;DHT22;57049;51.450;-2.516;2022-07-04T09:20:17;19.10;69.29
69776;DHT22;57049;51.450;-2.516;2022-07-04T09:22:45;20.16;63.86
69776;DHT22;57049;51.450;-2.516;2022-07-04T09:25:12;20.25;64.70
69776;DHT22;57049;51.450;-2.516;2022-07-04T09:27:44;20.38;64.65
69776;DHT22;57049;51.450;-2.516;2022-07-04T09:30:11;19.87;64.53
69776;DHT22;57049;51.450;-2.516;2022-07-04T09:32:42;19.12;66.30
69776;DHT22;57049;51.450;-2.516;2022-07-04T09:35:11;18.75;68.62
69776;DHT22;57049;51.450;-2.516;2022-07-04T09:37:41;18.64;68.58
69776;DHT22;57049;51.450;-2.516;2022-07-04T09:40:09;18.35;68.73
69776;DHT22;57049;51.450;-2.516;2022-07-04T09:42:41;18.38;69.13
69776;DHT22;57049;51.450;-2.516;2022-07-04T09:45:11;18.35;68.09
69776;DHT22;57049;51.450;-2.516;2022-07-04T09:47:40;18.18;70.07
69776;DHT22;57049;51.450;-2.516;2022-07-04T09:50:10;18.20;70.49
69776;DHT22;57049;51.450;-2.516;2022-07-04T09:52:55;18.05;71.39
69776;DHT22;57049;51.450;-2.516;2022-07-04T09:57:49;18.20;71.24
69776;DHT22;57049;51.450;-2.516;2022-07-04T10:00:26;18.31;69.13
69776;DHT22;57049;51.450;-2.516;2022-07-04T10:02:53;18.65;69.30
69776;DHT22;57049;51.450;-2.516;2022-07-04T10:05:22;18.79;68.38
69776;DHT22;57049;51.450;-2.516;2022-07-04T10:07:48;19.20;66.96
69776;DHT22;57049;51.450;-2.516;2022-07-04T10:10:34;19.70;66.20
69776;DHT22;57049;51.450;-2.516;2022-07-04T10:13:08;21.74;59.93
69776;DHT22;57049;51.450;-2.516;2022-07-04T10:15:35;22.10;60.14
69776;DHT22;57049;51.450;-2.516;2022-07-04T10:18:03;22.73;57.67
69776;DHT22;57049;51.450;-2.516;2022-07-04T10:20:29;22.94;57.60
69776;DHT22;57049;51.450;-2.516;2022-07-04T10:22:55;22.28;55.30
69776;DHT22;57049;51.450;-2.516;2022-07-04T10:25:20;21.47;59.89
69776;DHT22;57049;51.450;-2.516;2022-07-04T10:27:46;21.07;59.22
69776;DHT22;57049;51.450;-2.516;2022-07-04T10:30:16;20.15;61.79
69776;DHT22;57049;51.450;-2.516;2022-07-04T10:32:46;19.47;65.15
69776;DHT22;57049;51.450;-2.516;2022-07-04T10:35:13;19.10;67.04
69776;DHT22;57049;51.450;-2.516;2022-07-04T10:37:59;18.93;66.41
69776;DHT22;57049;51.450;-2.516;2022-07-04T10:40:46;18.72;65.61
69776;DHT22;57049;51.450;-2.516;2022-07-04T10:51:40;19.22;63.73
69776;DHT22;57049;51.450;-2.516;2022-07-04T10:56:37;20.08;60.97
69776;DHT22;57049;51.450;-2.516;2022-07-04T10:59:15;20.87;58.80
69776;DHT22;57049;51.450;-2.516;2022-07-04T11:01:46;20.48;57.74
69776;DHT22;57049;51.450;-2.516;2022-07-04T11:04:12;20.11;60.16
69776;DHT22;57049;51.450;-2.516;2022-07-04T11:09:30;19.60;60.98
69776;DHT22;57049;51.450;-2.516;2022-07-04T11:12:03;19.16;62.77
69776;DHT22;57049;51.450;-2.516;2022-07-04T11:19:37;20.67;58.92
69776;DHT22;57049;51.450;-2.516;2022-07-04T11:22:04;21.17;56.91
69776;DHT22;57049;51.450;-2.516;2022-07-04T11:24:31;21.51;52.85
69776;DHT22;57049;51.450;-2.516;2022-07-04T11:26:57;20.70;57.05
69776;DHT22;57049;51.450;-2.516;2022-07-04T11:29:23;20.02;56.63
69776;DHT22;57049;51.450;-2.516;2022-07-04T11:31:51;19.88;56.41
69776;DHT22;57049;51.450;-2.516;2022-07-04T11:34:18;19.75;58.28
69776;DHT22;57049;51.450;-2.516;2022-07-04T11:36:45;20.11;59.03
69776;DHT22;57049;51.450;-2.516;2022-07-04T11:39:13;20.94;57.29
69776;DHT22;57049;51.450;-2.516;2022-07-04T11:41:43;20.69;55.69
69776;DHT22;57049;51.450;-2.516;2022-07-04T11:44:29;20.55;58.36
69776;DHT22;57049;51.450;-2.516;2022-07-04T11:47:15;20.76;57.05
69776;DHT22;57049;51.450;-2.516;2022-07-04T11:52:19;20.42;56.76
69776;DHT22;57049;51.450;-2.516;2022-07-04T11:54:45;21.18;56.28
69776;DHT22;57049;51.450;-2.516;2022-07-04T11:57:22;20.73;55.48
69776;DHT22;57049;51.450;-2.516;2022-07-04T12:00:01;20.25;55.37
69776;DHT22;57049;51.450;-2.516;2022-07-04T12:02:30;20.57;55.12
69776;DHT22;57049;51.450;-2.516;2022-07-04T12:04:58;20.70;55.98
69776;DHT22;57049;51.450;-2.516;2022-07-04T12:07:27;20.22;54.00
69776;DHT22;57049;51.450;-2.516;2022-07-04T12:09:53;20.89;57.32
69776;DHT22;57049;51.450;-2.516;2022-07-04T12:12:20;21.61;56.16
69776;DHT22;57049;51.450;-2.516;2022-07-04T12:15:04;21.65;55.14
69776;DHT22;57049;51.450;-2.516;2022-07-04T12:17:37;21.93;56.16
69776;DHT22;57049;51.450;-2.516;2022-07-04T12:20:13;21.82;54.46
69776;DHT22;57049;51.450;-2.516;2022-07-04T12:22:55;21.08;56.66
69776;DHT22;57049;51.450;-2.516;2022-07-04T12:25:29;20.86;56.74
69776;DHT22;57049;51.450;-2.516;2022-07-04T12:28:00;21.78;56.91
69776;DHT22;57049;51.450;-2.516;2022-07-04T12:30:28;21.88;56.93
69776;DHT22;57049;51.450;-2.516;2022-07-04T12:33:01;21.96;52.47
69776;DHT22;57049;51.450;-2.516;2022-07-04T12:38:09;22.14;52.71
69776;DHT22;57049;51.450;-2.516;2022-07-04T12:40:35;21.44;53.13
69776;DHT22;57049;51.450;-2.516;2022-07-04T12:43:02;21.45;53.35
69776;DHT22;57049;51.450;-2.516;2022-07-04T12:45:47;21.54;52.47
69776;DHT22;57049;51.450;-2.516;2022-07-04T12:48:29;22.08;54.41
69776;DHT22;57049;51.450;-2.516;2022-07-04T12:53:39;22.32;53.51
69776;DHT22;57049;51.450;-2.516;2022-07-04T12:56:06;21.72;54.88
69776;DHT22;57049;51.450;-2.516;2022-07-04T12:58:31;21.11;56.10
69776;DHT22;57049;51.450;-2.516;2022-07-04T13:00:57;20.76;54.90
69776;DHT22;57049;51.450;-2.516;2022-07-04T13:03:22;20.96;54.80
69776;DHT22;57049;51.450;-2.516;2022-07-04T13:05:49;21.12;55.30
69776;DHT22;57049;51.450;-2.516;2022-07-04T13:08:14;22.01;55.87
69776;DHT22;57049;51.450;-2.516;2022-07-04T13:10:40;22.03;52.92
69776;DHT22;57049;51.450;-2.516;2022-07-04T13:13:05;21.61;51.76
69776;DHT22;57049;51.450;-2.516;2022-07-04T13:15:31;22.23;54.07
69776;DHT22;57049;51.450;-2.516;2022-07-04T13:17:57;22.09;51.38
69776;DHT22;57049;51.450;-2.516;2022-07-04T13:20:22;21.15;52.64
69776;DHT22;57049;51.450;-2.516;2022-07-04T13:22:48;21.47;54.28
69776;DHT22;57049;51.450;-2.516;2022-07-04T13:25:14;21.44;53.25
69776;DHT22;57049;51.450;-2.516;2022-07-04T13:27:39;20.97;54.14
69776;DHT22;57049;51.450;-2.516;2022-07-04T13:30:05;20.93;55.71
69776;DHT22;57049;51.450;-2.516;2022-07-04T13:32:31;21.51;52.13
69776;DHT22;57049;51.450;-2.516;2022-07-04T13:34:58;21.86;54.41
69776;DHT22;57049;51.450;-2.516;2022-07-04T13:37:24;22.12;52.73
69776;DHT22;57049;51.450;-2.516;2022-07-04T13:39:49;22.70;50.28
69776;DHT22;57049;51.450;-2.516;2022-07-04T13:42:15;22.59;51.41
69776;DHT22;57049;51.450;-2.516;2022-07-04T13:45:00;22.53;51.98
69776;DHT22;57049;51.450;-2.516;2022-07-04T13:47:26;22.49;53.44
69776;DHT22;57049;51.450;-2.516;2022-07-04T13:49:53;22.67;52.71
69776;DHT22;57049;51.450;-2.516;2022-07-04T13:52:18;22.35;52.20
69776;DHT22;57049;51.450;-2.516;2022-07-04T13:54:44;22.44;52.96
69776;DHT22;57049;51.450;-2.516;2022-07-04T13:57:09;22.28;51.04
69776;DHT22;57049;51.450;-2.516;2022-07-04T13:59:35;22.74;54.06
69776;DHT22;57049;51.450;-2.516;2022-07-04T14:02:00;22.24;51.82
69776;DHT22;57049;51.450;-2.516;2022-07-04T14:04:26;21.54;56.24
69776;DHT22;57049;51.450;-2.516;2022-07-04T14:06:51;21.08;55.72
69776;DHT22;57049;51.450;-2.516;2022-07-04T14:09:16;21.17;55.82
69776;DHT22;57049;51.450;-2.516;2022-07-04T14:11:42;21.37;58.53
69776;DHT22;57049;51.450;-2.516;2022-07-04T14:14:07;21.00;57.80
69776;DHT22;57049;51.450;-2.516;2022-07-04T14:16:33;20.73;59.74
69776;DHT22;57049;51.450;-2.516;2022-07-04T14:18:59;20.40;57.90
69776;DHT22;57049;51.450;-2.516;2022-07-04T14:21:24;20.35;58.82
69776;DHT22;57049;51.450;-2.516;2022-07-04T14:23:50;20.14;60.59
69776;DHT22;57049;51.450;-2.516;2022-07-04T14:26:17;19.95;62.20
69776;DHT22;57049;51.450;-2.516;2022-07-04T14:28:45;19.85;62.23
69776;DHT22;57049;51.450;-2.516;2022-07-04T14:31:11;19.60;61.96
69776;DHT22;57049;51.450;-2.516;2022-07-04T14:33:36;19.94;62.37
69776;DHT22;57049;51.450;-2.516;2022-07-04T14:36:03;20.07;58.84
69776;DHT22;57049;51.450;-2.516;2022-07-04T14:38:29;20.09;59.04
69776;DHT22;57049;51.450;-2.516;2022-07-04T14:40:54;20.40;56.97
69776;DHT22;57049;51.450;-2.516;2022-07-04T14:43:20;20.81;57.46
69776;DHT22;57049;51.450;-2.516;2022-07-04T14:45:46;20.87;59.54
69776;DHT22;57049;51.450;-2.516;2022-07-04T14:48:15;21.03;57.12
69776;DHT22;57049;51.450;-2.516;2022-07-04T14:50:41;21.27;55.77
69776;DHT22;57049;51.450;-2.516;2022-07-04T14:53:06;21.26;56.42
69776;DHT22;57049;51.450;-2.516;2022-07-04T14:55:32;21.08;57.33
69776;DHT22;57049;51.450;-2.516;2022-07-04T14:57:57;20.83;57.37
69776;DHT22;57049;51.450;-2.516;2022-07-04T15:00:23;21.04;58.87
69776;DHT22;57049;51.450;-2.516;2022-07-04T15:02:48;21.21;57.89
69776;DHT22;57049;51.450;-2.516;2022-07-04T15:05:15;21.15;57.02
69776;DHT22;57049;51.450;-2.516;2022-07-04T15:07:40;21.11;58.32
69776;DHT22;57049;51.450;-2.516;2022-07-04T15:10:06;21.17;58.60
69776;DHT22;57049;51.450;-2.516;2022-07-04T15:12:33;21.00;58.78
69776;DHT22;57049;51.450;-2.516;2022-07-04T15:14:59;21.01;56.87
69776;DHT22;57049;51.450;-2.516;2022-07-04T15:17:26;21.11;59.67
69776;DHT22;57049;51.450;-2.516;2022-07-04T15:19:51;21.03;58.38
69776;DHT22;57049;51.450;-2.516;2022-07-04T15:22:35;20.94;56.36
69776;DHT22;57049;51.450;-2.516;2022-07-04T15:25:39;21.14;55.99
69776;DHT22;57049;51.450;-2.516;2022-07-04T15:28:05;21.92;55.65
69776;DHT22;57049;51.450;-2.516;2022-07-04T15:30:31;21.81;54.36
69776;DHT22;57049;51.450;-2.516;2022-07-04T15:32:56;21.35;55.13
69776;DHT22;57049;51.450;-2.516;2022-07-04T15:35:22;21.10;55.93
69776;DHT22;57049;51.450;-2.516;2022-07-04T15:37:47;20.67;56.51
69776;DHT22;57049;51.450;-2.516;2022-07-04T15:40:13;20.62;56.59
69776;DHT22;57049;51.450;-2.516;2022-07-04T15:42:38;20.53;58.74
69776;DHT22;57049;51.450;-2.516;2022-07-04T15:45:04;20.69;57.71
69776;DHT22;57049;51.450;-2.516;2022-07-04T15:47:30;20.55;59.44